FIN8WP EFHK-EHAM
Flight info
| Callsign | FIN8WP |
|---|---|
| Flight time | N/A |
| Altitude | 40000 |
| Route | NUNTO Y369 REKDO DCT KOSKA DCT KOPIM N872 DEMIR DCT WANZA N872 OGFON DCT KUBAT T200 BLUFA |
| Aircraft | A359/H-SDE2E3GHIJ3J4J5LM1ORWXY/LB1D1 |
Departure
| Time | 2026-05-05 16:51 |
|---|---|
| Airport | Helsinki Vantaa Airport (EFHK) |
Arrival
| Time | N/A |
|---|---|
| Airport | Amsterdam Airport Schiphol (EHAM) |
| Time | Latitude | Longitude | Altitude | Speed | Heading |
|---|---|---|---|---|---|
| 2026-05-05 16:06 | 60.31675 | 24.96030 | 168 ft | 0 kts | 138° |
| 2026-05-05 16:35 | 60.31686 | 24.96009 | 167 ft | 4 kts | 123° |
| 2026-05-05 16:35 | 60.31700 | 24.95967 | 167 ft | 2 kts | 137° |
| 2026-05-05 16:36 | 60.31714 | 24.95933 | 167 ft | 4 kts | 105° |
| 2026-05-05 16:36 | 60.31713 | 24.95884 | 167 ft | 4 kts | 63° |
| 2026-05-05 16:36 | 60.31698 | 24.95840 | 167 ft | 3 kts | 48° |
| 2026-05-05 16:36 | 60.31696 | 24.95834 | 167 ft | 0 kts | 47° |
| 2026-05-05 16:41 | 60.31702 | 24.95848 | 167 ft | 5 kts | 47° |
| 2026-05-05 16:41 | 60.31754 | 24.95963 | 167 ft | 17 kts | 47° |
| 2026-05-05 16:41 | 60.31823 | 24.96109 | 167 ft | 4 kts | 40° |
| 2026-05-05 16:42 | 60.31853 | 24.96135 | 167 ft | 5 kts | 2° |
| 2026-05-05 16:42 | 60.31900 | 24.96071 | 168 ft | 14 kts | 321° |
| 2026-05-05 16:42 | 60.31963 | 24.95964 | 168 ft | 0 kts | 315° |
| 2026-05-05 16:42 | 60.31972 | 24.95947 | 168 ft | 6 kts | 315° |
| 2026-05-05 16:43 | 60.32002 | 24.95889 | 168 ft | 0 kts | 315° |
| 2026-05-05 16:45 | 60.32002 | 24.95888 | 168 ft | 1 kts | 315° |
| 2026-05-05 16:46 | 60.32025 | 24.95845 | 169 ft | 9 kts | 317° |
| 2026-05-05 16:46 | 60.32091 | 24.95721 | 168 ft | 18 kts | 317° |
| 2026-05-05 16:46 | 60.32198 | 24.95532 | 167 ft | 21 kts | 317° |
| 2026-05-05 16:46 | 60.32307 | 24.95328 | 167 ft | 21 kts | 320° |
| 2026-05-05 16:47 | 60.32437 | 24.95211 | 167 ft | 21 kts | 341° |
| 2026-05-05 16:47 | 60.32575 | 24.95122 | 167 ft | 21 kts | 343° |
| 2026-05-05 16:47 | 60.32717 | 24.95026 | 167 ft | 22 kts | 341° |
| 2026-05-05 16:47 | 60.32865 | 24.94931 | 167 ft | 22 kts | 340° |
| 2026-05-05 16:48 | 60.32901 | 24.94888 | 167 ft | 0 kts | 326° |
| 2026-05-05 16:48 | 60.32909 | 24.94878 | 167 ft | 6 kts | 326° |
| 2026-05-05 16:48 | 60.32981 | 24.94750 | 168 ft | 22 kts | 318° |
| 2026-05-05 16:49 | 60.33108 | 24.94501 | 176 ft | 18 kts | 300° |
| 2026-05-05 16:49 | 60.33099 | 24.94355 | 180 ft | 9 kts | 226° |
| 2026-05-05 16:49 | 60.33094 | 24.94343 | 180 ft | 0 kts | 227° |
| 2026-05-05 16:50 | 60.33093 | 24.94342 | 180 ft | 2 kts | 227° |
| 2026-05-05 16:50 | 60.32990 | 24.94115 | 196 ft | 53 kts | 227° |
| 2026-05-05 16:50 | 60.32595 | 24.93245 | 174 ft | 114 kts | 227° |
| 2026-05-05 16:50 | 60.31956 | 24.91814 | 317 ft | 149 kts | 231° |
| 2026-05-05 16:51 | 60.31216 | 24.90241 | 901 ft | 157 kts | 229° |
| 2026-05-05 16:51 | 60.30576 | 24.88434 | 1480 ft | 164 kts | 254° |
| 2026-05-05 16:51 | 60.30450 | 24.86001 | 1768 ft | 188 kts | 270° |
| 2026-05-05 16:51 | 60.30464 | 24.83159 | 1985 ft | 217 kts | 270° |
| 2026-05-05 16:52 | 60.30435 | 24.79998 | 2584 ft | 230 kts | 268° |
| 2026-05-05 16:52 | 60.30151 | 24.76792 | 3346 ft | 236 kts | 253° |
| 2026-05-05 16:52 | 60.29571 | 24.73667 | 4130 ft | 239 kts | 249° |
| 2026-05-05 16:52 | 60.28933 | 24.70548 | 4902 ft | 242 kts | 249° |
| 2026-05-05 16:53 | 60.28280 | 24.67380 | 5656 ft | 246 kts | 249° |
| 2026-05-05 16:53 | 60.27622 | 24.64171 | 6449 ft | 249 kts | 249° |
| 2026-05-05 16:53 | 60.26958 | 24.60935 | 7274 ft | 251 kts | 249° |
| 2026-05-05 16:53 | 60.26294 | 24.57695 | 8178 ft | 249 kts | 249° |
| 2026-05-05 16:54 | 60.25640 | 24.54507 | 9112 ft | 249 kts | 250° |
| 2026-05-05 16:54 | 60.24979 | 24.51284 | 9965 ft | 249 kts | 249° |
| 2026-05-05 16:54 | 60.24293 | 24.48145 | 10978 ft | 241 kts | 245° |
| 2026-05-05 16:54 | 60.23511 | 24.45102 | 11630 ft | 252 kts | 244° |
| 2026-05-05 16:55 | 60.22650 | 24.41884 | 11994 ft | 270 kts | 243° |
| 2026-05-05 16:55 | 60.21723 | 24.38445 | 12318 ft | 288 kts | 243° |
| 2026-05-05 16:55 | 60.20741 | 24.34809 | 12674 ft | 303 kts | 243° |
| 2026-05-05 16:55 | 60.19718 | 24.31029 | 13306 ft | 309 kts | 243° |
| 2026-05-05 16:56 | 60.18691 | 24.27234 | 14083 ft | 309 kts | 242° |
| 2026-05-05 16:56 | 60.17655 | 24.23412 | 14742 ft | 313 kts | 243° |
| 2026-05-05 16:56 | 60.16607 | 24.19550 | 15361 ft | 317 kts | 243° |
| 2026-05-05 16:56 | 60.15559 | 24.15693 | 16005 ft | 320 kts | 243° |
| 2026-05-05 16:57 | 60.14489 | 24.11761 | 16669 ft | 322 kts | 243° |
| 2026-05-05 16:57 | 60.13409 | 24.07795 | 17330 ft | 325 kts | 243° |
| 2026-05-05 16:57 | 60.12315 | 24.03789 | 18008 ft | 329 kts | 243° |
| 2026-05-05 16:57 | 60.11209 | 23.99743 | 18615 ft | 332 kts | 243° |
| 2026-05-05 16:58 | 60.10094 | 23.95671 | 19226 ft | 335 kts | 243° |
| 2026-05-05 16:58 | 60.08966 | 23.91564 | 19954 ft | 335 kts | 243° |
| 2026-05-05 16:58 | 60.07842 | 23.87467 | 20658 ft | 336 kts | 243° |
| 2026-05-05 16:58 | 60.06732 | 23.83311 | 21180 ft | 340 kts | 244° |
| 2026-05-05 16:59 | 60.05629 | 23.79074 | 21641 ft | 346 kts | 244° |
| 2026-05-05 16:59 | 60.04516 | 23.74770 | 22239 ft | 349 kts | 244° |
| 2026-05-05 16:59 | 60.03392 | 23.70437 | 22861 ft | 352 kts | 244° |
| 2026-05-05 16:59 | 60.02257 | 23.66082 | 23460 ft | 355 kts | 244° |
| 2026-05-05 17:00 | 60.01106 | 23.61693 | 23955 ft | 358 kts | 244° |
| 2026-05-05 17:00 | 59.99941 | 23.57273 | 24456 ft | 361 kts | 244° |
| 2026-05-05 17:00 | 59.98779 | 23.52885 | 24943 ft | 363 kts | 244° |
| 2026-05-05 17:00 | 59.97587 | 23.48392 | 25429 ft | 366 kts | 243° |
| 2026-05-05 17:01 | 59.96388 | 23.43883 | 25906 ft | 369 kts | 243° |
| 2026-05-05 17:01 | 59.95177 | 23.39336 | 26393 ft | 372 kts | 243° |
| 2026-05-05 17:01 | 59.93956 | 23.34763 | 26847 ft | 375 kts | 243° |
| 2026-05-05 17:01 | 59.92723 | 23.30154 | 27326 ft | 378 kts | 243° |
| 2026-05-05 17:02 | 59.91481 | 23.25520 | 27803 ft | 380 kts | 243° |
| 2026-05-05 17:02 | 59.90227 | 23.20847 | 28264 ft | 383 kts | 243° |
| 2026-05-05 17:02 | 59.88965 | 23.16156 | 28688 ft | 386 kts | 243° |
| 2026-05-05 17:02 | 59.87689 | 23.11424 | 29056 ft | 390 kts | 243° |
| 2026-05-05 17:03 | 59.86399 | 23.06649 | 29396 ft | 394 kts | 243° |
| 2026-05-05 17:03 | 59.85108 | 23.01882 | 29809 ft | 396 kts | 243° |
| 2026-05-05 17:03 | 59.83794 | 22.97039 | 30166 ft | 398 kts | 243° |
| 2026-05-05 17:03 | 59.82471 | 22.92175 | 30587 ft | 399 kts | 243° |
| 2026-05-05 17:04 | 59.81145 | 22.87306 | 30924 ft | 401 kts | 243° |
| 2026-05-05 17:04 | 59.79806 | 22.82404 | 31183 ft | 405 kts | 243° |
| 2026-05-05 17:04 | 59.78459 | 22.77482 | 31438 ft | 407 kts | 243° |
| 2026-05-05 17:04 | 59.77102 | 22.72526 | 31707 ft | 409 kts | 243° |
| 2026-05-05 17:05 | 59.75744 | 22.67571 | 32084 ft | 409 kts | 243° |
| 2026-05-05 17:05 | 59.74399 | 22.62692 | 32461 ft | 408 kts | 243° |
| 2026-05-05 17:05 | 59.73035 | 22.57757 | 32811 ft | 408 kts | 243° |